sensor_id;sensor_type;location;lat;lon;timestamp;P1;durP1;ratioP1;P2;durP2;ratioP2
45136;SDS011;30894;51.740;19.498;2023-12-07T00:01:54;54.00;;;17.85;;
45136;SDS011;30894;51.740;19.498;2023-12-07T00:04:21;48.17;;;15.82;;
45136;SDS011;30894;51.740;19.498;2023-12-07T00:06:52;45.25;;;15.60;;
45136;SDS011;30894;51.740;19.498;2023-12-07T00:09:20;49.28;;;16.63;;
45136;SDS011;30894;51.740;19.498;2023-12-07T00:11:51;47.40;;;16.33;;
45136;SDS011;30894;51.740;19.498;2023-12-07T00:14:23;50.00;;;17.42;;
45136;SDS011;30894;51.740;19.498;2023-12-07T00:16:53;49.95;;;18.17;;
45136;SDS011;30894;51.740;19.498;2023-12-07T00:19:22;44.25;;;15.13;;
45136;SDS011;30894;51.740;19.498;2023-12-07T00:21:49;49.35;;;16.70;;
45136;SDS011;30894;51.740;19.498;2023-12-07T00:24:15;43.75;;;15.82;;
45136;SDS011;30894;51.740;19.498;2023-12-07T00:26:46;49.50;;;16.52;;
45136;SDS011;30894;51.740;19.498;2023-12-07T00:29:12;52.55;;;15.68;;
45136;SDS011;30894;51.740;19.498;2023-12-07T00:31:38;36.85;;;13.85;;
45136;SDS011;30894;51.740;19.498;2023-12-07T00:34:04;46.10;;;15.52;;
45136;SDS011;30894;51.740;19.498;2023-12-07T00:36:32;44.92;;;15.27;;
45136;SDS011;30894;51.740;19.498;2023-12-07T00:39:00;46.60;;;15.90;;
45136;SDS011;30894;51.740;19.498;2023-12-07T00:41:29;47.30;;;15.50;;
45136;SDS011;30894;51.740;19.498;2023-12-07T00:43:55;42.67;;;14.88;;
45136;SDS011;30894;51.740;19.498;2023-12-07T00:46:23;40.45;;;14.45;;
45136;SDS011;30894;51.740;19.498;2023-12-07T00:48:49;42.42;;;15.70;;
45136;SDS011;30894;51.740;19.498;2023-12-07T00:51:16;43.35;;;14.35;;
45136;SDS011;30894;51.740;19.498;2023-12-07T00:53:44;44.88;;;14.82;;
45136;SDS011;30894;51.740;19.498;2023-12-07T00:56:13;42.63;;;12.23;;
45136;SDS011;30894;51.740;19.498;2023-12-07T00:58:42;49.30;;;15.95;;
45136;SDS011;30894;51.740;19.498;2023-12-07T01:01:08;45.22;;;15.48;;
45136;SDS011;30894;51.740;19.498;2023-12-07T01:03:35;49.97;;;15.13;;
45136;SDS011;30894;51.740;19.498;2023-12-07T01:06:01;44.60;;;14.90;;
45136;SDS011;30894;51.740;19.498;2023-12-07T01:08:31;42.15;;;14.43;;
45136;SDS011;30894;51.740;19.498;2023-12-07T01:11:01;50.15;;;16.33;;
45136;SDS011;30894;51.740;19.498;2023-12-07T01:13:27;47.80;;;15.30;;
45136;SDS011;30894;51.740;19.498;2023-12-07T01:15:55;38.00;;;14.35;;
45136;SDS011;30894;51.740;19.498;2023-12-07T01:18:22;42.10;;;14.65;;
45136;SDS011;30894;51.740;19.498;2023-12-07T01:20:48;38.60;;;13.93;;
45136;SDS011;30894;51.740;19.498;2023-12-07T01:23:16;41.88;;;15.73;;
45136;SDS011;30894;51.740;19.498;2023-12-07T01:25:42;43.50;;;13.88;;
45136;SDS011;30894;51.740;19.498;2023-12-07T01:28:12;43.38;;;15.15;;
45136;SDS011;30894;51.740;19.498;2023-12-07T01:30:38;46.78;;;15.15;;
45136;SDS011;30894;51.740;19.498;2023-12-07T01:33:05;49.60;;;15.88;;
45136;SDS011;30894;51.740;19.498;2023-12-07T01:35:34;48.78;;;14.57;;
45136;SDS011;30894;51.740;19.498;2023-12-07T01:38:00;46.53;;;14.52;;
45136;SDS011;30894;51.740;19.498;2023-12-07T01:40:28;43.78;;;14.70;;
45136;SDS011;30894;51.740;19.498;2023-12-07T01:42:57;55.67;;;16.05;;
45136;SDS011;30894;51.740;19.498;2023-12-07T01:45:26;42.58;;;14.70;;
45136;SDS011;30894;51.740;19.498;2023-12-07T01:47:53;45.35;;;14.00;;
45136;SDS011;30894;51.740;19.498;2023-12-07T01:50:24;49.30;;;14.60;;
45136;SDS011;30894;51.740;19.498;2023-12-07T01:52:54;53.22;;;15.10;;
45136;SDS011;30894;51.740;19.498;2023-12-07T01:55:25;45.08;;;13.57;;
45136;SDS011;30894;51.740;19.498;2023-12-07T01:57:53;43.30;;;13.73;;
45136;SDS011;30894;51.740;19.498;2023-12-07T02:00:20;47.53;;;14.73;;
45136;SDS011;30894;51.740;19.498;2023-12-07T02:02:49;42.60;;;15.25;;
45136;SDS011;30894;51.740;19.498;2023-12-07T02:05:18;46.15;;;15.10;;
45136;SDS011;30894;51.740;19.498;2023-12-07T02:07:45;48.58;;;14.25;;
45136;SDS011;30894;51.740;19.498;2023-12-07T02:10:21;52.58;;;15.02;;
45136;SDS011;30894;51.740;19.498;2023-12-07T02:12:49;51.53;;;15.32;;
45136;SDS011;30894;51.740;19.498;2023-12-07T02:15:24;45.85;;;14.60;;
45136;SDS011;30894;51.740;19.498;2023-12-07T02:20:58;45.00;;;13.57;;
45136;SDS011;30894;51.740;19.498;2023-12-07T02:24:14;39.58;;;13.63;;
45136;SDS011;30894;51.740;19.498;2023-12-07T02:26:46;46.85;;;15.10;;
45136;SDS011;30894;51.740;19.498;2023-12-07T02:29:17;46.85;;;14.95;;
45136;SDS011;30894;51.740;19.498;2023-12-07T02:31:43;45.13;;;14.35;;
45136;SDS011;30894;51.740;19.498;2023-12-07T02:34:10;38.45;;;14.20;;
45136;SDS011;30894;51.740;19.498;2023-12-07T02:36:38;48.08;;;14.60;;
45136;SDS011;30894;51.740;19.498;2023-12-07T02:39:10;46.47;;;14.15;;
45136;SDS011;30894;51.740;19.498;2023-12-07T02:41:38;39.92;;;15.18;;
45136;SDS011;30894;51.740;19.498;2023-12-07T02:44:07;48.08;;;14.68;;
45136;SDS011;30894;51.740;19.498;2023-12-07T02:46:34;43.92;;;15.60;;
45136;SDS011;30894;51.740;19.498;2023-12-07T02:49:01;48.33;;;15.93;;
45136;SDS011;30894;51.740;19.498;2023-12-07T02:51:27;49.75;;;14.52;;
45136;SDS011;30894;51.740;19.498;2023-12-07T02:53:54;46.95;;;14.05;;
45136;SDS011;30894;51.740;19.498;2023-12-07T02:56:23;47.38;;;15.05;;
45136;SDS011;30894;51.740;19.498;2023-12-07T02:58:53;41.85;;;14.00;;
45136;SDS011;30894;51.740;19.498;2023-12-07T03:01:19;44.00;;;14.02;;
45136;SDS011;30894;51.740;19.498;2023-12-07T03:03:46;50.75;;;16.23;;
45136;SDS011;30894;51.740;19.498;2023-12-07T03:06:12;43.78;;;13.63;;
45136;SDS011;30894;51.740;19.498;2023-12-07T03:08:39;47.65;;;15.45;;
45136;SDS011;30894;51.740;19.498;2023-12-07T03:11:08;48.08;;;14.93;;
45136;SDS011;30894;51.740;19.498;2023-12-07T03:13:35;40.45;;;13.20;;
45136;SDS011;30894;51.740;19.498;2023-12-07T03:16:06;50.55;;;15.07;;
45136;SDS011;30894;51.740;19.498;2023-12-07T03:18:34;47.42;;;15.45;;
45136;SDS011;30894;51.740;19.498;2023-12-07T03:21:02;45.25;;;15.77;;
45136;SDS011;30894;51.740;19.498;2023-12-07T03:23:28;46.00;;;14.95;;
45136;SDS011;30894;51.740;19.498;2023-12-07T03:25:55;44.10;;;14.80;;
45136;SDS011;30894;51.740;19.498;2023-12-07T03:28:22;42.78;;;13.88;;
45136;SDS011;30894;51.740;19.498;2023-12-07T03:30:48;50.00;;;14.77;;
45136;SDS011;30894;51.740;19.498;2023-12-07T03:33:17;47.67;;;14.65;;
45136;SDS011;30894;51.740;19.498;2023-12-07T03:35:43;42.17;;;14.05;;
45136;SDS011;30894;51.740;19.498;2023-12-07T03:38:09;41.67;;;15.25;;
45136;SDS011;30894;51.740;19.498;2023-12-07T03:40:40;46.72;;;14.77;;
45136;SDS011;30894;51.740;19.498;2023-12-07T03:43:06;46.58;;;16.05;;
45136;SDS011;30894;51.740;19.498;2023-12-07T03:45:36;47.45;;;14.82;;
45136;SDS011;30894;51.740;19.498;2023-12-07T03:48:02;43.75;;;14.93;;
45136;SDS011;30894;51.740;19.498;2023-12-07T03:50:30;47.70;;;14.85;;
45136;SDS011;30894;51.740;19.498;2023-12-07T03:52:57;46.35;;;15.95;;
45136;SDS011;30894;51.740;19.498;2023-12-07T03:55:23;46.55;;;14.32;;
45136;SDS011;30894;51.740;19.498;2023-12-07T03:57:50;47.28;;;13.70;;
45136;SDS011;30894;51.740;19.498;2023-12-07T04:00:17;41.22;;;14.55;;
45136;SDS011;30894;51.740;19.498;2023-12-07T04:02:43;40.97;;;14.48;;
45136;SDS011;30894;51.740;19.498;2023-12-07T04:05:10;47.17;;;13.23;;
45136;SDS011;30894;51.740;19.498;2023-12-07T04:07:38;47.10;;;15.23;;
45136;SDS011;30894;51.740;19.498;2023-12-07T04:10:04;46.47;;;15.68;;
45136;SDS011;30894;51.740;19.498;2023-12-07T04:12:32;48.92;;;14.65;;
45136;SDS011;30894;51.740;19.498;2023-12-07T04:14:58;45.97;;;15.30;;
45136;SDS011;30894;51.740;19.498;2023-12-07T04:17:24;46.45;;;14.65;;
45136;SDS011;30894;51.740;19.498;2023-12-07T04:19:50;37.22;;;14.65;;
45136;SDS011;30894;51.740;19.498;2023-12-07T04:22:17;45.45;;;14.98;;
45136;SDS011;30894;51.740;19.498;2023-12-07T04:24:43;46.20;;;14.00;;
45136;SDS011;30894;51.740;19.498;2023-12-07T04:27:11;42.70;;;15.02;;
45136;SDS011;30894;51.740;19.498;2023-12-07T04:29:38;42.47;;;14.48;;
45136;SDS011;30894;51.740;19.498;2023-12-07T04:32:06;46.47;;;14.65;;
45136;SDS011;30894;51.740;19.498;2023-12-07T04:34:33;38.78;;;13.88;;
45136;SDS011;30894;51.740;19.498;2023-12-07T04:37:00;43.63;;;14.95;;
45136;SDS011;30894;51.740;19.498;2023-12-07T04:39:28;43.42;;;13.52;;
45136;SDS011;30894;51.740;19.498;2023-12-07T04:41:56;36.50;;;12.35;;
45136;SDS011;30894;51.740;19.498;2023-12-07T04:44:23;39.10;;;13.25;;
45136;SDS011;30894;51.740;19.498;2023-12-07T04:46:54;31.88;;;12.30;;
45136;SDS011;30894;51.740;19.498;2023-12-07T04:49:23;42.30;;;14.65;;
45136;SDS011;30894;51.740;19.498;2023-12-07T04:51:49;39.92;;;13.02;;
45136;SDS011;30894;51.740;19.498;2023-12-07T04:54:16;44.08;;;13.43;;
45136;SDS011;30894;51.740;19.498;2023-12-07T04:56:45;45.28;;;13.93;;
45136;SDS011;30894;51.740;19.498;2023-12-07T04:59:11;41.22;;;13.82;;
45136;SDS011;30894;51.740;19.498;2023-12-07T05:01:38;34.30;;;12.95;;
45136;SDS011;30894;51.740;19.498;2023-12-07T05:04:04;40.92;;;12.40;;
45136;SDS011;30894;51.740;19.498;2023-12-07T05:06:31;43.88;;;14.10;;
45136;SDS011;30894;51.740;19.498;2023-12-07T05:08:58;41.67;;;12.23;;
45136;SDS011;30894;51.740;19.498;2023-12-07T05:11:24;42.30;;;13.93;;
45136;SDS011;30894;51.740;19.498;2023-12-07T05:13:55;34.90;;;12.32;;
45136;SDS011;30894;51.740;19.498;2023-12-07T05:16:23;40.25;;;13.32;;
45136;SDS011;30894;51.740;19.498;2023-12-07T05:18:50;37.55;;;12.70;;
45136;SDS011;30894;51.740;19.498;2023-12-07T05:21:17;41.47;;;12.75;;
45136;SDS011;30894;51.740;19.498;2023-12-07T05:23:43;35.30;;;13.32;;
45136;SDS011;30894;51.740;19.498;2023-12-07T05:26:09;41.88;;;12.55;;
45136;SDS011;30894;51.740;19.498;2023-12-07T05:28:36;37.30;;;12.23;;
45136;SDS011;30894;51.740;19.498;2023-12-07T05:31:03;35.25;;;14.25;;
45136;SDS011;30894;51.740;19.498;2023-12-07T05:33:30;40.28;;;13.43;;
45136;SDS011;30894;51.740;19.498;2023-12-07T05:35:56;41.03;;;12.85;;
45136;SDS011;30894;51.740;19.498;2023-12-07T05:38:23;36.85;;;12.40;;
45136;SDS011;30894;51.740;19.498;2023-12-07T05:40:55;38.30;;;13.90;;
45136;SDS011;30894;51.740;19.498;2023-12-07T05:43:21;43.03;;;13.77;;
45136;SDS011;30894;51.740;19.498;2023-12-07T05:45:49;39.90;;;12.73;;
45136;SDS011;30894;51.740;19.498;2023-12-07T05:48:15;40.17;;;13.13;;
45136;SDS011;30894;51.740;19.498;2023-12-07T05:50:42;37.03;;;13.55;;
45136;SDS011;30894;51.740;19.498;2023-12-07T05:53:08;41.42;;;13.20;;
45136;SDS011;30894;51.740;19.498;2023-12-07T05:55:34;41.13;;;13.35;;
45136;SDS011;30894;51.740;19.498;2023-12-07T05:58:04;35.80;;;13.48;;
45136;SDS011;30894;51.740;19.498;2023-12-07T06:00:34;48.63;;;13.82;;
45136;SDS011;30894;51.740;19.498;2023-12-07T06:03:00;48.03;;;13.90;;
45136;SDS011;30894;51.740;19.498;2023-12-07T06:05:29;48.35;;;15.30;;
45136;SDS011;30894;51.740;19.498;2023-12-07T06:07:55;49.65;;;15.90;;
45136;SDS011;30894;51.740;19.498;2023-12-07T06:10:23;43.95;;;15.98;;
45136;SDS011;30894;51.740;19.498;2023-12-07T06:12:51;47.47;;;14.95;;
45136;SDS011;30894;51.740;19.498;2023-12-07T06:15:22;41.42;;;13.52;;
45136;SDS011;30894;51.740;19.498;2023-12-07T06:17:48;43.22;;;14.77;;
45136;SDS011;30894;51.740;19.498;2023-12-07T06:20:15;44.58;;;13.77;;
45136;SDS011;30894;51.740;19.498;2023-12-07T06:22:41;45.85;;;14.43;;
45136;SDS011;30894;51.740;19.498;2023-12-07T06:25:09;41.72;;;13.30;;
45136;SDS011;30894;51.740;19.498;2023-12-07T06:27:36;38.75;;;13.45;;
45136;SDS011;30894;51.740;19.498;2023-12-07T06:30:04;42.45;;;13.35;;
45136;SDS011;30894;51.740;19.498;2023-12-07T06:32:31;45.83;;;13.40;;
45136;SDS011;30894;51.740;19.498;2023-12-07T06:34:58;40.50;;;12.95;;
45136;SDS011;30894;51.740;19.498;2023-12-07T06:37:25;57.80;;;15.23;;
45136;SDS011;30894;51.740;19.498;2023-12-07T06:39:52;44.47;;;13.45;;
45136;SDS011;30894;51.740;19.498;2023-12-07T06:42:19;46.08;;;15.63;;
45136;SDS011;30894;51.740;19.498;2023-12-07T06:44:46;47.33;;;15.98;;
45136;SDS011;30894;51.740;19.498;2023-12-07T06:47:15;45.88;;;14.57;;
45136;SDS011;30894;51.740;19.498;2023-12-07T06:49:41;55.80;;;16.13;;
45136;SDS011;30894;51.740;19.498;2023-12-07T06:52:09;48.42;;;15.82;;
45136;SDS011;30894;51.740;19.498;2023-12-07T06:54:36;45.08;;;15.40;;
45136;SDS011;30894;51.740;19.498;2023-12-07T06:57:07;54.03;;;15.55;;
45136;SDS011;30894;51.740;19.498;2023-12-07T06:59:35;45.70;;;13.95;;
45136;SDS011;30894;51.740;19.498;2023-12-07T07:02:03;49.50;;;14.15;;
45136;SDS011;30894;51.740;19.498;2023-12-07T07:04:34;66.85;;;16.92;;
45136;SDS011;30894;51.740;19.498;2023-12-07T07:07:01;46.92;;;15.18;;
45136;SDS011;30894;51.740;19.498;2023-12-07T07:12:04;52.28;;;15.32;;
45136;SDS011;30894;51.740;19.498;2023-12-07T07:14:34;45.00;;;14.82;;
45136;SDS011;30894;51.740;19.498;2023-12-07T07:17:01;52.65;;;14.77;;
45136;SDS011;30894;51.740;19.498;2023-12-07T07:19:28;46.10;;;15.30;;
45136;SDS011;30894;51.740;19.498;2023-12-07T07:21:54;57.80;;;14.40;;
45136;SDS011;30894;51.740;19.498;2023-12-07T07:24:21;59.92;;;15.60;;
45136;SDS011;30894;51.740;19.498;2023-12-07T07:26:48;52.53;;;15.02;;
45136;SDS011;30894;51.740;19.498;2023-12-07T07:29:15;52.08;;;15.65;;
45136;SDS011;30894;51.740;19.498;2023-12-07T07:31:42;49.35;;;13.98;;
45136;SDS011;30894;51.740;19.498;2023-12-07T07:34:08;51.20;;;14.63;;
45136;SDS011;30894;51.740;19.498;2023-12-07T07:36:35;57.20;;;16.42;;
45136;SDS011;30894;51.740;19.498;2023-12-07T07:39:02;48.13;;;14.43;;
45136;SDS011;30894;51.740;19.498;2023-12-07T07:41:31;55.20;;;16.30;;
45136;SDS011;30894;51.740;19.498;2023-12-07T07:43:57;53.35;;;13.40;;
45136;SDS011;30894;51.740;19.498;2023-12-07T07:46:25;57.47;;;15.23;;
45136;SDS011;30894;51.740;19.498;2023-12-07T07:48:52;60.85;;;15.40;;
45136;SDS011;30894;51.740;19.498;2023-12-07T07:51:20;52.50;;;14.98;;
45136;SDS011;30894;51.740;19.498;2023-12-07T07:53:46;62.92;;;16.13;;
45136;SDS011;30894;51.740;19.498;2023-12-07T07:56:12;52.65;;;14.95;;
45136;SDS011;30894;51.740;19.498;2023-12-07T07:58:39;58.50;;;16.23;;
45136;SDS011;30894;51.740;19.498;2023-12-07T08:01:05;53.97;;;17.60;;
45136;SDS011;30894;51.740;19.498;2023-12-07T08:03:33;63.80;;;15.80;;
45136;SDS011;30894;51.740;19.498;2023-12-07T08:05:59;50.55;;;15.68;;
45136;SDS011;30894;51.740;19.498;2023-12-07T08:08:25;61.90;;;18.88;;
45136;SDS011;30894;51.740;19.498;2023-12-07T08:10:54;73.30;;;19.65;;
45136;SDS011;30894;51.740;19.498;2023-12-07T08:13:21;68.28;;;24.15;;
45136;SDS011;30894;51.740;19.498;2023-12-07T08:15:47;78.53;;;23.80;;
45136;SDS011;30894;51.740;19.498;2023-12-07T08:18:14;62.53;;;19.77;;
45136;SDS011;30894;51.740;19.498;2023-12-07T08:20:40;69.53;;;19.95;;
45136;SDS011;30894;51.740;19.498;2023-12-07T08:23:07;69.35;;;20.67;;
45136;SDS011;30894;51.740;19.498;2023-12-07T08:25:33;86.15;;;26.38;;
45136;SDS011;30894;51.740;19.498;2023-12-07T08:28:01;72.18;;;23.90;;
45136;SDS011;30894;51.740;19.498;2023-12-07T08:30:28;59.05;;;19.10;;
45136;SDS011;30894;51.740;19.498;2023-12-07T08:32:54;54.42;;;17.17;;
45136;SDS011;30894;51.740;19.498;2023-12-07T08:35:22;59.63;;;19.23;;
45136;SDS011;30894;51.740;19.498;2023-12-07T08:37:49;56.17;;;16.33;;
45136;SDS011;30894;51.740;19.498;2023-12-07T08:40:19;59.22;;;16.25;;
45136;SDS011;30894;51.740;19.498;2023-12-07T08:42:46;52.50;;;16.85;;
45136;SDS011;30894;51.740;19.498;2023-12-07T08:45:13;63.65;;;18.88;;
45136;SDS011;30894;51.740;19.498;2023-12-07T08:47:41;92.22;;;26.25;;
45136;SDS011;30894;51.740;19.498;2023-12-07T08:50:07;83.28;;;24.52;;
45136;SDS011;30894;51.740;19.498;2023-12-07T08:52:37;63.17;;;17.80;;
45136;SDS011;30894;51.740;19.498;2023-12-07T08:55:05;52.72;;;17.90;;
45136;SDS011;30894;51.740;19.498;2023-12-07T08:57:34;50.40;;;17.88;;
45136;SDS011;30894;51.740;19.498;2023-12-07T09:00:00;60.90;;;16.55;;
45136;SDS011;30894;51.740;19.498;2023-12-07T09:02:26;60.13;;;15.80;;
45136;SDS011;30894;51.740;19.498;2023-12-07T09:04:55;51.33;;;15.73;;
45136;SDS011;30894;51.740;19.498;2023-12-07T09:07:23;58.25;;;17.95;;
45136;SDS011;30894;51.740;19.498;2023-12-07T09:09:49;52.20;;;15.73;;
45136;SDS011;30894;51.740;19.498;2023-12-07T09:12:16;55.03;;;15.40;;
45136;SDS011;30894;51.740;19.498;2023-12-07T09:14:44;54.65;;;15.48;;
45136;SDS011;30894;51.740;19.498;2023-12-07T09:17:10;60.65;;;16.17;;
45136;SDS011;30894;51.740;19.498;2023-12-07T09:19:37;56.75;;;15.48;;
45136;SDS011;30894;51.740;19.498;2023-12-07T09:22:05;49.17;;;14.30;;
45136;SDS011;30894;51.740;19.498;2023-12-07T09:24:31;49.15;;;14.25;;
45136;SDS011;30894;51.740;19.498;2023-12-07T09:26:58;52.95;;;14.85;;
45136;SDS011;30894;51.740;19.498;2023-12-07T09:29:24;51.42;;;16.13;;
45136;SDS011;30894;51.740;19.498;2023-12-07T09:31:51;60.40;;;15.65;;
45136;SDS011;30894;51.740;19.498;2023-12-07T09:34:17;55.75;;;16.20;;
45136;SDS011;30894;51.740;19.498;2023-12-07T09:36:45;52.88;;;16.60;;
45136;SDS011;30894;51.740;19.498;2023-12-07T09:39:11;48.20;;;16.67;;
45136;SDS011;30894;51.740;19.498;2023-12-07T09:41:39;59.03;;;17.15;;
45136;SDS011;30894;51.740;19.498;2023-12-07T09:44:07;50.03;;;14.63;;
45136;SDS011;30894;51.740;19.498;2023-12-07T09:46:34;67.63;;;17.40;;
45136;SDS011;30894;51.740;19.498;2023-12-07T09:49:03;59.03;;;16.02;;
45136;SDS011;30894;51.740;19.498;2023-12-07T09:51:33;56.00;;;15.93;;
45136;SDS011;30894;51.740;19.498;2023-12-07T09:54:01;48.20;;;14.70;;
45136;SDS011;30894;51.740;19.498;2023-12-07T09:56:30;49.78;;;15.30;;
45136;SDS011;30894;51.740;19.498;2023-12-07T09:58:57;47.63;;;15.05;;
45136;SDS011;30894;51.740;19.498;2023-12-07T10:01:29;43.42;;;14.48;;
45136;SDS011;30894;51.740;19.498;2023-12-07T10:06:50;46.03;;;13.70;;
45136;SDS011;30894;51.740;19.498;2023-12-07T10:09:16;47.70;;;14.65;;
45136;SDS011;30894;51.740;19.498;2023-12-07T10:11:44;40.45;;;13.57;;
45136;SDS011;30894;51.740;19.498;2023-12-07T10:14:11;40.72;;;12.82;;
45136;SDS011;30894;51.740;19.498;2023-12-07T10:16:54;38.00;;;13.23;;
45136;SDS011;30894;51.740;19.498;2023-12-07T10:19:21;52.17;;;14.65;;
45136;SDS011;30894;51.740;19.498;2023-12-07T10:21:51;42.95;;;13.13;;
45136;SDS011;30894;51.740;19.498;2023-12-07T10:24:18;35.28;;;11.35;;
45136;SDS011;30894;51.740;19.498;2023-12-07T10:26:50;42.45;;;13.77;;
45136;SDS011;30894;51.740;19.498;2023-12-07T10:29:20;41.47;;;12.65;;
45136;SDS011;30894;51.740;19.498;2023-12-07T10:31:49;43.10;;;14.00;;
45136;SDS011;30894;51.740;19.498;2023-12-07T10:34:19;36.92;;;12.43;;
45136;SDS011;30894;51.740;19.498;2023-12-07T10:36:46;43.92;;;11.90;;
45136;SDS011;30894;51.740;19.498;2023-12-07T10:39:15;42.20;;;13.30;;
45136;SDS011;30894;51.740;19.498;2023-12-07T10:41:46;32.97;;;11.23;;
45136;SDS011;30894;51.740;19.498;2023-12-07T10:44:15;38.20;;;12.85;;
45136;SDS011;30894;51.740;19.498;2023-12-07T10:46:47;44.95;;;13.57;;
45136;SDS011;30894;51.740;19.498;2023-12-07T10:49:15;40.55;;;14.02;;
45136;SDS011;30894;51.740;19.498;2023-12-07T10:54:19;39.67;;;11.68;;
45136;SDS011;30894;51.740;19.498;2023-12-07T10:56:50;35.60;;;11.27;;
45136;SDS011;30894;51.740;19.498;2023-12-07T10:59:16;38.67;;;12.43;;
45136;SDS011;30894;51.740;19.498;2023-12-07T11:01:44;43.65;;;13.27;;
45136;SDS011;30894;51.740;19.498;2023-12-07T11:04:13;34.22;;;11.70;;
45136;SDS011;30894;51.740;19.498;2023-12-07T11:06:44;36.70;;;12.57;;
45136;SDS011;30894;51.740;19.498;2023-12-07T11:09:17;34.67;;;12.60;;
45136;SDS011;30894;51.740;19.498;2023-12-07T11:12:05;36.88;;;12.15;;
45136;SDS011;30894;51.740;19.498;2023-12-07T11:14:42;39.25;;;11.27;;
45136;SDS011;30894;51.740;19.498;2023-12-07T11:17:12;37.22;;;12.27;;
45136;SDS011;30894;51.740;19.498;2023-12-07T11:19:43;37.70;;;11.93;;
45136;SDS011;30894;51.740;19.498;2023-12-07T11:22:11;37.50;;;12.77;;
45136;SDS011;30894;51.740;19.498;2023-12-07T11:24:51;38.92;;;12.65;;
45136;SDS011;30894;51.740;19.498;2023-12-07T11:27:29;35.03;;;10.60;;
45136;SDS011;30894;51.740;19.498;2023-12-07T11:29:58;40.15;;;14.25;;
45136;SDS011;30894;51.740;19.498;2023-12-07T11:32:28;34.78;;;10.85;;
45136;SDS011;30894;51.740;19.498;2023-12-07T11:34:58;41.38;;;14.02;;
45136;SDS011;30894;51.740;19.498;2023-12-07T11:37:59;35.72;;;13.40;;
45136;SDS011;30894;51.740;19.498;2023-12-07T11:40:43;36.67;;;12.90;;
45136;SDS011;30894;51.740;19.498;2023-12-07T11:46:06;43.08;;;15.32;;
45136;SDS011;30894;51.740;19.498;2023-12-07T11:48:34;47.55;;;17.77;;
45136;SDS011;30894;51.740;19.498;2023-12-07T11:51:02;51.67;;;17.13;;
45136;SDS011;30894;51.740;19.498;2023-12-07T11:53:38;42.72;;;16.40;;
45136;SDS011;30894;51.740;19.498;2023-12-07T11:56:05;46.83;;;15.95;;
45136;SDS011;30894;51.740;19.498;2023-12-07T11:58:34;51.20;;;16.90;;
45136;SDS011;30894;51.740;19.498;2023-12-07T12:01:03;50.60;;;16.48;;
45136;SDS011;30894;51.740;19.498;2023-12-07T12:03:31;42.47;;;14.35;;
45136;SDS011;30894;51.740;19.498;2023-12-07T12:06:03;41.20;;;15.18;;
45136;SDS011;30894;51.740;19.498;2023-12-07T12:08:31;51.25;;;16.10;;
45136;SDS011;30894;51.740;19.498;2023-12-07T12:10:59;47.55;;;13.75;;
45136;SDS011;30894;51.740;19.498;2023-12-07T12:13:29;48.20;;;16.13;;
45136;SDS011;30894;51.740;19.498;2023-12-07T12:16:00;44.97;;;14.52;;
45136;SDS011;30894;51.740;19.498;2023-12-07T12:18:26;46.05;;;15.73;;
45136;SDS011;30894;51.740;19.498;2023-12-07T12:20:53;41.53;;;14.98;;
45136;SDS011;30894;51.740;19.498;2023-12-07T12:23:20;42.55;;;14.30;;
45136;SDS011;30894;51.740;19.498;2023-12-07T12:25:47;38.88;;;13.02;;
45136;SDS011;30894;51.740;19.498;2023-12-07T12:28:15;48.97;;;15.30;;
45136;SDS011;30894;51.740;19.498;2023-12-07T12:30:44;45.85;;;15.52;;
45136;SDS011;30894;51.740;19.498;2023-12-07T12:33:13;47.33;;;15.88;;
45136;SDS011;30894;51.740;19.498;2023-12-07T12:35:40;50.72;;;15.63;;
45136;SDS011;30894;51.740;19.498;2023-12-07T12:38:09;53.92;;;16.15;;
45136;SDS011;30894;51.740;19.498;2023-12-07T12:40:37;54.65;;;15.75;;
45136;SDS011;30894;51.740;19.498;2023-12-07T12:43:08;49.38;;;15.73;;
45136;SDS011;30894;51.740;19.498;2023-12-07T12:45:36;58.17;;;15.93;;
45136;SDS011;30894;51.740;19.498;2023-12-07T12:48:02;47.92;;;15.77;;
45136;SDS011;30894;51.740;19.498;2023-12-07T12:50:34;44.72;;;15.10;;
45136;SDS011;30894;51.740;19.498;2023-12-07T12:53:10;55.72;;;17.23;;
45136;SDS011;30894;51.740;19.498;2023-12-07T12:55:39;47.45;;;16.40;;
45136;SDS011;30894;51.740;19.498;2023-12-07T12:58:10;48.78;;;16.58;;
45136;SDS011;30894;51.740;19.498;2023-12-07T13:00:48;51.28;;;16.60;;
45136;SDS011;30894;51.740;19.498;2023-12-07T13:03:16;54.60;;;17.63;;
45136;SDS011;30894;51.740;19.498;2023-12-07T13:05:42;51.85;;;15.80;;
45136;SDS011;30894;51.740;19.498;2023-12-07T13:08:09;67.75;;;17.90;;
45136;SDS011;30894;51.740;19.498;2023-12-07T13:10:35;64.63;;;19.48;;
45136;SDS011;30894;51.740;19.498;2023-12-07T13:13:04;50.47;;;15.70;;
45136;SDS011;30894;51.740;19.498;2023-12-07T13:15:32;57.22;;;18.23;;
45136;SDS011;30894;51.740;19.498;2023-12-07T13:17:58;51.08;;;16.52;;
45136;SDS011;30894;51.740;19.498;2023-12-07T13:20:25;54.08;;;16.60;;
45136;SDS011;30894;51.740;19.498;2023-12-07T13:22:54;58.25;;;17.92;;
45136;SDS011;30894;51.740;19.498;2023-12-07T13:25:23;56.17;;;17.08;;
45136;SDS011;30894;51.740;19.498;2023-12-07T13:28:01;50.25;;;16.77;;
45136;SDS011;30894;51.740;19.498;2023-12-07T13:30:37;58.58;;;18.08;;
45136;SDS011;30894;51.740;19.498;2023-12-07T13:33:13;47.35;;;17.50;;
45136;SDS011;30894;51.740;19.498;2023-12-07T13:35:41;54.97;;;17.80;;
45136;SDS011;30894;51.740;19.498;2023-12-07T13:38:10;51.63;;;18.60;;
45136;SDS011;30894;51.740;19.498;2023-12-07T13:40:39;56.90;;;20.42;;
45136;SDS011;30894;51.740;19.498;2023-12-07T13:43:10;53.50;;;19.42;;
45136;SDS011;30894;51.740;19.498;2023-12-07T13:45:40;68.50;;;21.15;;
45136;SDS011;30894;51.740;19.498;2023-12-07T13:48:08;46.67;;;18.23;;
45136;SDS011;30894;51.740;19.498;2023-12-07T13:50:34;52.92;;;18.08;;
45136;SDS011;30894;51.740;19.498;2023-12-07T13:53:02;54.78;;;18.70;;
45136;SDS011;30894;51.740;19.498;2023-12-07T13:55:28;57.67;;;19.25;;
45136;SDS011;30894;51.740;19.498;2023-12-07T13:58:03;55.67;;;18.20;;
45136;SDS011;30894;51.740;19.498;2023-12-07T14:00:30;64.72;;;19.83;;
45136;SDS011;30894;51.740;19.498;2023-12-07T14:03:00;68.60;;;21.00;;
45136;SDS011;30894;51.740;19.498;2023-12-07T14:05:26;60.38;;;20.60;;
45136;SDS011;30894;51.740;19.498;2023-12-07T14:07:58;58.58;;;20.13;;
45136;SDS011;30894;51.740;19.498;2023-12-07T14:10:28;57.92;;;19.33;;
45136;SDS011;30894;51.740;19.498;2023-12-07T14:12:55;58.45;;;19.08;;
45136;SDS011;30894;51.740;19.498;2023-12-07T14:15:24;56.22;;;19.10;;
45136;SDS011;30894;51.740;19.498;2023-12-07T14:17:52;57.60;;;19.10;;
45136;SDS011;30894;51.740;19.498;2023-12-07T14:20:19;62.55;;;21.08;;
45136;SDS011;30894;51.740;19.498;2023-12-07T14:22:52;59.13;;;20.77;;
45136;SDS011;30894;51.740;19.498;2023-12-07T14:25:23;67.28;;;20.73;;
45136;SDS011;30894;51.740;19.498;2023-12-07T14:27:51;67.38;;;19.33;;
45136;SDS011;30894;51.740;19.498;2023-12-07T14:30:17;57.45;;;19.65;;